KESF/ESF METAR and TAF weather

Enter ICAO airport designator
Station Type Date Time Source
KESF METAR 2022/11/27 07:53 UTC NOAA

KESF 270753Z AUTO 22006KT 10SM CLR 11/08 A2985 RMK AO2 SLP107 T01060078


Station Type Date Time Source
KESF Decoded METAR 2022/11/27 07:53 UTC NOAA

ALEXANDRIA ESLER RGNL AIRPORT , LA, United States (KESF) 31-24N 092-18W 28M
Nov 27, 2022 - 02:53 AM EST / 2022.11.27 0753 UTC
Wind: from the SW (220 degrees) at 7 MPH (6 KT):0
Visibility: 10 mile(s):0
Sky conditions: clear
Temperature: 51.1 F (10.6 C)
Dew Point: 46.0 F (7.8 C)
Relative Humidity: 82%
Pressure (altimeter): 29.85 in. Hg (1010 hPa)
ob: KESF 270753Z AUTO 22006KT 10SM CLR 11/08 A2985 RMK AO2 SLP107 T01060078
cycle: 8

Station Type Date Time Source
KESF TAF UTC NOAA

Error!

Example: see airport list